OIMB  Birjand Airport

Add Bookmark

Birjand, Iran

Status
Operational
Latitude Longitude
32° 53' 53" N 59° 15' 57" E
32.898056 59.266111
Local (DST + 5) UTC (GMT + 4)
Jul 23, 2014 08:23 Jul 23, 2014 03:53
Sunrise-Sunset Local UTC
Begin Civil Twilight 05:11 00:41
Sunrise 05:39 01:09
Sunset 07:39 15:09
End Civil Twilight 08:07 15:37

Current Weather

METAR Observed MVFR
OIMB 230330Z 13004KT 8000 SKC 29/M01 Q1010 Wed, Jul 23, 2014 @ 03:30 UTC
(23 Minutes ago)
Marginal Visual Flight Rules

Decoded METAR

Wind Visibility Clouds Conditions
130° at 4 knots (7 kph) 8000 meters
  • Clear skies
  • No significant weather
Temperatures Readings Precipitation
Current Temp 29°C (84°F)
Dewpoint -1°C (30°F)
Humidity 14%
Altimeter 29.82"Hg
Sea Level Pressure 1010mb
Field Elevation 4891.73'
None Recorded

Additional weather within a 185.2km radius of OIMB

Map ICAO Location METAR
OIMD 170.2km N (342°) 1 hr, 53 mins ago

24 Hour Weather History

Loading
-

24 Hour Weather Graphs

Loading
-

CheckWX.com is intended as a tool to help pilots better visualize weather data. It is not intended as a substitute for an official weather briefing obtained from a Flight Service Station. CheckWX.com does not meet the FAA requirements for an official pre-flight weather briefing. Therefore, it's important that pilots still call and obtain an official FSS pre-flight weather briefing.